Time;durP1;ratioP1;P1;durP2;ratioP2;P2;SDS_P1;SDS_P2;PMS_P1;PMS_P2;Temp;Humidity;BMP_temperature;BMP_pressure;BME280_temperature;BME280_humidity;BME280_pressure;Samples;Min_cycle;Max_cycle;Signal;HPM_P1;HPM_P2
2021/06/01 00:01:45;;;;;;;0.20;0.20;;;;;;;13.64;71.21;102188.66;4982470;28;20116;-73
2021/06/01 00:04:12;;;;;;;0.17;0.17;;;;;;;13.58;71.78;102202.16;4982660;28;20473;-73
2021/06/01 00:06:39;;;;;;;0.20;0.20;;;;;;;13.44;71.75;102176.09;4983593;28;20145;-73
2021/06/01 00:09:08;;;;;;;0.20;0.20;;;;;;;13.43;72.05;102190.13;4981757;28;20048;-72
2021/06/01 00:11:34;;;;;;;0.25;0.25;;;;;;;13.34;72.08;102172.47;4981690;28;20046;-73
2021/06/01 00:14:00;;;;;;;0.60;0.20;;;;;;;13.43;72.09;102174.44;4980525;28;20037;-73
2021/06/01 00:16:26;;;;;;;0.20;0.20;;;;;;;13.31;72.58;102178.75;4984497;28;20050;-73
2021/06/01 00:18:51;;;;;;;0.20;0.20;;;;;;;13.21;72.90;102178.50;4981397;28;20035;-73
2021/06/01 00:21:17;;;;;;;0.20;0.20;;;;;;;13.28;72.70;102186.75;4978906;28;20527;-73
2021/06/01 00:23:43;;;;;;;0.20;0.20;;;;;;;13.22;72.81;102177.56;4982724;28;20389;-73
2021/06/01 00:26:11;;;;;;;0.10;0.10;;;;;;;13.24;72.75;102190.53;4982557;28;20062;-73
2021/06/01 00:28:38;;;;;;;0.20;0.20;;;;;;;13.06;73.03;102166.44;4980725;28;20038;-73
2021/06/01 00:31:05;;;;;;;0.20;0.20;;;;;;;13.00;73.85;102180.75;4981234;28;20485;-72
2021/06/01 00:33:31;;;;;;;0.20;0.20;;;;;;;12.98;73.40;102176.56;4982411;28;20763;-73
2021/06/01 00:35:57;;;;;;;0.30;0.30;;;;;;;13.05;73.39;102175.22;4982604;28;20165;-72
2021/06/01 00:38:22;;;;;;;0.20;0.20;;;;;;;13.12;73.22;102192.19;4967117;28;20639;-73
2021/06/01 00:40:48;;;;;;;0.20;0.20;;;;;;;13.01;72.32;102171.97;4966642;28;20770;-73
2021/06/01 00:43:13;;;;;;;0.30;0.30;;;;;;;13.00;72.74;102182.53;4981506;28;20038;-73
2021/06/01 00:45:40;;;;;;;0.20;0.20;;;;;;;12.90;73.38;102171.84;4983492;28;20125;-74
2021/06/01 00:48:06;;;;;;;0.30;0.30;;;;;;;12.90;72.81;102179.69;4982641;28;20034;-73
2021/06/01 00:50:35;;;;;;;0.30;0.30;;;;;;;12.92;73.48;102193.47;4982583;28;20100;-74
2021/06/01 00:53:01;;;;;;;0.20;0.20;;;;;;;12.79;72.75;102171.72;4981993;28;20046;-74
2021/06/01 00:55:27;;;;;;;0.10;0.10;;;;;;;12.75;73.42;102178.09;4981099;28;20034;-73
2021/06/01 00:57:54;;;;;;;0.20;0.20;;;;;;;12.84;73.44;102202.78;4966831;28;20038;-73
2021/06/01 01:03:06;;;;;;;0.20;0.20;;;;;;;12.70;73.55;102194.06;4979885;28;20038;-73
2021/06/01 01:05:39;;;;;;;0.20;0.20;;;;;;;12.72;73.40;102201.78;4982353;28;20038;-73
2021/06/01 01:11:00;;;;;;;0.20;0.20;;;;;;;12.57;73.68;102190.59;4981329;28;20034;-73
2021/06/01 01:13:32;;;;;;;0.20;0.20;;;;;;;12.54;73.87;102190.75;4981594;28;20159;-73
2021/06/01 01:15:58;;;;;;;0.20;0.20;;;;;;;12.43;74.26;102177.56;4982054;28;20650;-73
2021/06/01 01:18:26;;;;;;;0.30;0.30;;;;;;;12.37;74.96;102178.78;4964595;28;20030;-73
2021/06/01 01:20:51;;;;;;;0.20;0.20;;;;;;;12.44;74.71;102197.53;4984377;28;20030;-73
2021/06/01 01:23:19;;;;;;;0.20;0.20;;;;;;;12.30;74.77;102181.88;4980666;28;20718;-73
2021/06/01 01:26:08;;;;;;;0.22;0.20;;;;;;;12.36;74.82;102194.53;4982305;28;20038;-73
2021/06/01 01:28:44;;;;;;;0.20;0.20;;;;;;;12.31;75.09;102179.16;4997586;28;20045;-73
2021/06/01 01:31:42;;;;;;;0.30;0.30;;;;;;;12.27;75.26;102190.75;4996338;28;20042;-73
2021/06/01 01:34:10;;;;;;;0.30;0.30;;;;;;;12.26;75.47;102198.69;4983493;28;20061;-73
2021/06/01 01:36:37;;;;;;;0.20;0.20;;;;;;;12.21;75.81;102185.94;4980341;28;20434;-73
2021/06/01 01:39:05;;;;;;;0.20;0.20;;;;;;;12.10;75.53;102178.75;4967126;28;20548;-73
2021/06/01 01:41:34;;;;;;;0.30;0.20;;;;;;;12.12;75.46;102180.44;4982098;28;20571;-74
2021/06/01 01:44:05;;;;;;;0.20;0.20;;;;;;;12.12;75.40;102180.44;4980849;28;20543;-73
2021/06/01 01:49:14;;;;;;;0.20;0.20;;;;;;;12.11;75.26;102184.81;4981599;28;20390;-74
2021/06/01 01:51:43;;;;;;;0.10;0.10;;;;;;;12.08;75.68;102185.03;4982805;28;20411;-73
2021/06/01 01:54:11;;;;;;;0.20;0.20;;;;;;;11.97;75.48;102185.66;4980743;28;20045;-73
2021/06/01 01:56:44;;;;;;;0.20;0.20;;;;;;;12.00;75.68;102175.03;4980944;28;20069;-73
2021/06/01 01:59:12;;;;;;;0.43;0.30;;;;;;;11.94;75.50;102164.16;4997987;28;20507;-72
2021/06/01 02:01:41;;;;;;;0.20;0.20;;;;;;;12.01;75.87;102174.09;4983194;28;20042;-73
2021/06/01 02:04:07;;;;;;;0.20;0.20;;;;;;;11.98;75.72;102168.22;4978668;28;20038;-73
2021/06/01 02:06:33;;;;;;;0.20;0.20;;;;;;;11.92;76.18;102171.25;4981447;28;20077;-72
2021/06/01 02:08:59;;;;;;;0.25;0.25;;;;;;;11.89;75.99;102161.81;4997564;28;20073;-72
2021/06/01 02:11:25;;;;;;;0.20;0.20;;;;;;;11.85;76.29;102172.53;4976486;28;20076;-73
2021/06/01 02:14:02;;;;;;;0.20;0.20;;;;;;;11.85;76.35;102168.19;4982724;28;20789;-73
2021/06/01 02:16:29;;;;;;;0.35;0.20;;;;;;;11.74;75.89;102152.31;4981088;28;20125;-73
2021/06/01 02:18:54;;;;;;;0.20;0.20;;;;;;;11.67;76.03;102153.59;4981242;28;20105;-74
2021/06/01 02:21:33;;;;;;;0.20;0.20;;;;;;;11.76;76.26;102173.91;4961348;28;20496;-73
2021/06/01 02:24:03;;;;;;;0.38;0.30;;;;;;;11.63;75.96;102152.09;4979412;28;20105;-73
2021/06/01 02:27:05;;;;;;;0.20;0.20;;;;;;;11.61;76.47;102156.59;4978778;28;20046;-73
2021/06/01 02:29:37;;;;;;;0.20;0.20;;;;;;;11.44;76.84;102140.19;4982309;28;20532;-73
2021/06/01 02:32:05;;;;;;;0.20;0.20;;;;;;;11.57;76.66;102148.13;4982148;28;20093;-74
2021/06/01 02:34:36;;;;;;;0.22;0.20;;;;;;;11.63;76.44;102165.16;4981376;28;20035;-73
2021/06/01 02:37:02;;;;;;;0.20;0.20;;;;;;;11.48;76.22;102154.72;4981713;28;20047;-73
2021/06/01 02:39:29;;;;;;;1.08;0.10;;;;;;;11.53;76.43;102158.84;4983333;28;20035;-72
2021/06/01 02:41:56;;;;;;;0.20;0.20;;;;;;;11.52;76.58;102152.78;4981287;28;20098;-73
2021/06/01 02:44:22;;;;;;;0.20;0.20;;;;;;;11.36;77.08;102144.19;4982028;28;20097;-74
2021/06/01 02:46:48;;;;;;;0.20;0.20;;;;;;;11.15;77.18;102123.69;4950714;28;20046;-73
2021/06/01 02:49:17;;;;;;;0.20;0.20;;;;;;;11.23;77.31;102138.88;4969729;28;20057;-73
2021/06/01 02:51:42;;;;;;;0.20;0.20;;;;;;;11.34;77.14;102157.34;4985604;28;20516;-74
2021/06/01 02:54:09;;;;;;;0.20;0.20;;;;;;;11.18;77.34;102141.75;4997867;28;20042;-73
2021/06/01 02:56:35;;;;;;;0.30;0.30;;;;;;;11.13;77.35;102140.34;4997148;28;20043;-74
2021/06/01 02:59:04;;;;;;;0.20;0.20;;;;;;;11.20;77.77;102146.88;4983629;28;20055;-74
2021/06/01 03:01:30;;;;;;;0.22;0.22;;;;;;;10.93;77.08;102112.84;4985738;28;20042;-74
2021/06/01 03:03:56;;;;;;;0.20;0.20;;;;;;;11.13;77.37;102142.94;4983084;28;20038;-74
2021/06/01 03:06:24;;;;;;;0.30;0.30;;;;;;;11.07;77.51;102133.72;4979556;28;20046;-73
2021/06/01 03:08:50;;;;;;;0.20;0.20;;;;;;;11.07;77.62;102138.09;4985268;28;20034;-73
2021/06/01 03:11:18;;;;;;;0.30;0.30;;;;;;;11.06;77.37;102134.66;4983588;28;20081;-73
2021/06/01 03:13:45;;;;;;;0.25;0.25;;;;;;;11.12;77.53;102146.47;5001608;28;20042;-73
2021/06/01 03:16:11;;;;;;;0.25;0.25;;;;;;;11.10;77.86;102141.34;4982944;28;20157;-73
2021/06/01 03:18:37;;;;;;;0.20;0.20;;;;;;;11.04;78.08;102148.72;4984476;28;20034;-73
2021/06/01 03:21:03;;;;;;;0.20;0.20;;;;;;;11.02;78.09;102138.38;4982073;28;20507;-73
2021/06/01 03:23:29;;;;;;;0.30;0.30;;;;;;;10.95;78.09;102133.59;4984102;28;20084;-73
2021/06/01 03:25:54;;;;;;;0.20;0.20;;;;;;;10.90;77.81;102131.28;4983213;28;20457;-73
2021/06/01 03:28:20;;;;;;;0.20;0.20;;;;;;;10.88;78.32;102131.34;4983984;28;20038;-73
2021/06/01 03:30:48;;;;;;;0.30;0.30;;;;;;;10.88;78.34;102133.13;4984329;28;20034;-72
2021/06/01 03:33:14;;;;;;;0.32;0.32;;;;;;;10.87;78.32;102131.44;4983150;28;20480;-73
2021/06/01 03:35:40;;;;;;;0.20;0.20;;;;;;;10.94;78.26;102134.53;4980625;28;20144;-74
2021/06/01 03:38:06;;;;;;;0.20;0.20;;;;;;;10.88;78.32;102135.72;4982723;28;20474;-73
2021/06/01 03:40:32;;;;;;;0.30;0.30;;;;;;;10.81;78.41;102121.41;4996585;28;20030;-73
2021/06/01 03:42:58;;;;;;;0.20;0.20;;;;;;;10.84;78.18;102127.25;4984306;28;20038;-73
2021/06/01 03:45:26;;;;;;;0.22;0.20;;;;;;;10.91;78.22;102140.75;4984939;28;20072;-73
2021/06/01 03:47:51;;;;;;;0.20;0.20;;;;;;;10.87;78.44;102134.91;4985607;28;20770;-74
2021/06/01 03:50:17;;;;;;;0.30;0.30;;;;;;;10.85;78.74;102138.53;4984750;28;20201;-73
2021/06/01 03:52:43;;;;;;;0.43;0.30;;;;;;;10.84;78.91;102139.44;4985243;28;20053;-74
2021/06/01 03:55:09;;;;;;;0.20;0.20;;;;;;;10.66;78.57;102114.47;4982979;28;20046;-73
2021/06/01 03:57:34;;;;;;;0.30;0.20;;;;;;;10.57;78.96;102108.84;4967007;28;20042;-73
2021/06/01 04:00:00;;;;;;;0.20;0.20;;;;;;;10.69;79.45;102124.69;4984603;28;20386;-73
2021/06/01 04:02:26;;;;;;;0.80;0.20;;;;;;;10.76;79.46;102134.66;4983143;28;20485;-73
2021/06/01 04:04:51;;;;;;;0.20;0.20;;;;;;;10.76;79.28;102132.06;4983610;28;20618;-74
2021/06/01 04:07:17;;;;;;;0.20;0.20;;;;;;;10.75;79.09;102129.53;4964377;28;20587;-73
2021/06/01 04:09:43;;;;;;;0.30;0.30;;;;;;;10.84;79.09;102136.84;4983365;28;20042;-73
2021/06/01 04:12:10;;;;;;;0.20;0.20;;;;;;;10.82;78.87;102134.34;4979741;28;20054;-73
2021/06/01 04:14:35;;;;;;;0.30;0.30;;;;;;;10.75;79.30;102126.94;4984648;28;20492;-73
2021/06/01 04:17:01;;;;;;;0.35;0.35;;;;;;;10.84;79.05;102132.47;4997021;28;20038;-73
2021/06/01 04:19:26;;;;;;;0.20;0.20;;;;;;;10.75;79.44;102122.56;4979834;28;20500;-73
2021/06/01 04:21:52;;;;;;;0.22;0.22;;;;;;;10.86;79.27;102142.81;4984237;28;20065;-73
2021/06/01 04:24:20;;;;;;;0.22;0.22;;;;;;;10.79;79.68;102120.66;4975927;28;20050;-74
2021/06/01 04:26:46;;;;;;;0.20;0.20;;;;;;;10.62;79.63;102095.56;4983141;28;20038;-73
2021/06/01 04:29:11;;;;;;;0.30;0.30;;;;;;;10.87;79.96;102134.06;4978859;28;20045;-73
2021/06/01 04:31:39;;;;;;;0.28;0.28;;;;;;;10.89;80.46;102142.63;4983893;28;20039;-73
2021/06/01 04:34:05;;;;;;;0.20;0.20;;;;;;;10.75;79.72;102111.31;4982222;28;20465;-73
2021/06/01 04:36:30;;;;;;;0.30;0.30;;;;;;;10.86;79.47;102120.19;4985636;28;20074;-71
2021/06/01 04:38:55;;;;;;;0.38;0.30;;;;;;;10.98;79.88;102136.06;4984694;28;20353;-71
2021/06/01 04:41:21;;;;;;;0.30;0.30;;;;;;;10.99;80.27;102135.97;4978031;28;20397;-71
2021/06/01 04:43:47;;;;;;;0.30;0.30;;;;;;;11.00;80.21;102126.38;4982484;28;20047;-71
2021/06/01 04:46:12;;;;;;;0.55;0.30;;;;;;;11.09;80.46;102134.47;4981044;28;20046;-71
2021/06/01 04:48:38;;;;;;;0.20;0.20;;;;;;;11.14;79.99;102134.22;4965676;28;20035;-72
2021/06/01 04:51:04;;;;;;;0.30;0.30;;;;;;;11.21;79.74;102132.91;4982865;28;20639;-72
2021/06/01 04:53:29;;;;;;;0.30;0.30;;;;;;;11.23;80.22;102118.00;4998837;28;20042;-71
2021/06/01 04:55:55;;;;;;;0.13;0.13;;;;;;;11.39;80.73;102136.19;4982780;28;20113;-71
2021/06/01 04:58:20;;;;;;;0.32;0.22;;;;;;;11.45;81.32;102146.25;4978691;28;20031;-71
2021/06/01 05:00:46;;;;;;;0.20;0.20;;;;;;;11.35;81.61;102125.09;4979465;28;20464;-71
2021/06/01 05:03:11;;;;;;;0.30;0.30;;;;;;;11.39;82.00;102123.97;4983375;28;20507;-71
2021/06/01 05:05:37;;;;;;;1.27;0.30;;;;;;;11.62;81.42;102151.28;4984122;28;20269;-71
2021/06/01 05:08:03;;;;;;;0.20;0.20;;;;;;;11.49;81.70;102124.28;4981588;28;20039;-71
2021/06/01 05:10:28;;;;;;;0.30;0.30;;;;;;;11.72;81.35;102144.56;4982611;28;20039;-71
2021/06/01 05:12:54;;;;;;;0.30;0.30;;;;;;;11.65;81.76;102131.97;4981383;28;20050;-72
2021/06/01 05:15:19;;;;;;;0.30;0.30;;;;;;;11.84;80.83;102142.16;4982167;28;20393;-72
2021/06/01 05:17:45;;;;;;;0.25;0.25;;;;;;;11.92;80.33;102139.91;4966357;28;20046;-72
2021/06/01 05:20:11;;;;;;;0.30;0.30;;;;;;;12.02;80.20;102147.06;4966208;28;20038;-72
2021/06/01 05:22:36;;;;;;;0.20;0.20;;;;;;;12.02;80.04;102130.56;4983515;28;20042;-72
2021/06/01 05:25:03;;;;;;;0.20;0.20;;;;;;;12.12;79.54;102139.50;4982506;28;20089;-71
2021/06/01 05:27:29;;;;;;;0.30;0.30;;;;;;;12.26;78.88;102143.84;4980608;28;20045;-72
2021/06/01 05:29:58;;;;;;;0.30;0.30;;;;;;;12.29;79.02;102136.66;4983770;28;20046;-72
2021/06/01 05:35:19;;;;;;;0.20;0.20;;;;;;;12.36;79.20;102122.25;4996741;28;20038;-72
2021/06/01 05:37:45;;;;;;;0.30;0.30;;;;;;;12.48;78.73;102130.22;4981611;28;20499;-72
2021/06/01 05:40:13;;;;;;;0.30;0.30;;;;;;;12.53;79.03;102128.16;4980719;28;21480;-71
2021/06/01 05:42:38;;;;;;;0.30;0.30;;;;;;;12.66;79.01;102139.47;4983181;28;20454;-71
2021/06/01 05:45:05;;;;;;;0.30;0.30;;;;;;;12.71;78.68;102138.22;4982012;28;20046;-71
2021/06/01 05:47:30;;;;;;;0.30;0.30;;;;;;;12.73;78.94;102124.22;4979863;28;20088;-72
2021/06/01 05:49:56;;;;;;;0.38;0.28;;;;;;;12.82;78.73;102121.84;4965378;28;20038;-72
2021/06/01 05:52:21;;;;;;;0.22;0.22;;;;;;;12.95;77.86;102127.09;4981381;28;20074;-72
2021/06/01 05:54:47;;;;;;;0.28;0.28;;;;;;;12.89;78.28;102110.03;4965130;28;20412;-72
2021/06/01 05:57:13;;;;;;;0.30;0.30;;;;;;;13.15;77.56;102138.81;4979975;28;20031;-71
2021/06/01 05:59:38;;;;;;;0.30;0.30;;;;;;;13.23;77.33;102134.78;4981634;28;20041;-71
2021/06/01 06:02:04;;;;;;;0.95;0.40;;;;;;;13.21;77.52;102117.50;4980698;28;20039;-71
2021/06/01 06:04:30;;;;;;;0.52;0.40;;;;;;;13.42;77.34;102134.34;4982140;28;20121;-71
2021/06/01 06:06:55;;;;;;;0.20;0.20;;;;;;;13.45;76.66;102123.66;4982084;28;20096;-72
2021/06/01 06:09:20;;;;;;;0.30;0.30;;;;;;;13.50;76.00;102112.91;4985978;28;20108;-73
2021/06/01 06:11:46;;;;;;;0.30;0.30;;;;;;;13.76;76.29;102132.00;4981023;28;20054;-72
2021/06/01 06:14:12;;;;;;;0.25;0.25;;;;;;;13.89;75.53;102127.56;4982537;28;20116;-72
2021/06/01 06:16:46;;;;;;;0.30;0.30;;;;;;;13.90;75.07;102119.59;4976245;28;20049;-72
2021/06/01 06:19:12;;;;;;;0.40;0.30;;;;;;;14.03;73.74;102108.25;4990321;28;20031;-72
2021/06/01 06:21:37;;;;;;;0.80;0.30;;;;;;;14.18;72.42;102120.22;4969815;28;20034;-73
2021/06/01 06:24:04;;;;;;;0.30;0.30;;;;;;;14.39;72.05;102146.69;4983713;28;20042;-72
2021/06/01 06:26:30;;;;;;;0.30;0.30;;;;;;;14.41;70.27;102113.31;4984205;28;20119;-72
2021/06/01 06:28:55;;;;;;;0.17;0.17;;;;;;;14.43;69.29;102107.06;4982893;28;20050;-72
2021/06/01 06:31:21;;;;;;;0.25;0.25;;;;;;;14.59;69.70;102108.53;4966305;28;20129;-72
2021/06/01 06:33:46;;;;;;;0.30;0.30;;;;;;;14.83;68.00;102132.91;4986414;28;20038;-72
2021/06/01 06:36:12;;;;;;;0.30;0.30;;;;;;;14.90;68.61;102135.91;4978309;28;20049;-73
2021/06/01 06:38:37;;;;;;;0.20;0.20;;;;;;;14.86;69.27;102111.69;5000793;28;20074;-70
2021/06/01 06:41:14;;;;;;;0.30;0.30;;;;;;;15.07;69.07;102128.44;4988648;28;20169;-71
2021/06/01 06:43:44;;;;;;;0.30;0.30;;;;;;;15.18;66.92;102124.16;4987422;28;20549;-71
2021/06/01 06:46:22;;;;;;;0.30;0.30;;;;;;;15.20;66.38;102119.63;4985390;28;20045;-71
2021/06/01 06:48:48;;;;;;;0.20;0.20;;;;;;;15.35;65.39;102129.78;4988618;28;20052;-70
2021/06/01 06:51:13;;;;;;;0.25;0.20;;;;;;;15.53;65.08;102138.03;4984741;28;20039;-72
2021/06/01 06:53:56;;;;;;;0.20;0.20;;;;;;;15.61;64.28;102126.94;4995055;28;20046;-72
2021/06/01 06:56:30;;;;;;;0.30;0.30;;;;;;;15.75;63.95;102131.94;4988755;28;20377;-71
2021/06/01 06:58:57;;;;;;;0.20;0.20;;;;;;;15.76;64.07;102117.03;4984855;28;20100;-71
2021/06/01 07:01:23;;;;;;;0.20;0.20;;;;;;;15.82;64.83;102111.31;5001679;28;20046;-71
2021/06/01 07:03:49;;;;;;;0.20;0.20;;;;;;;15.89;64.96;102094.91;4987395;28;20026;-71
2021/06/01 07:06:18;;;;;;;0.20;0.20;;;;;;;16.17;65.12;102121.63;4999902;28;20211;-71
2021/06/01 07:08:43;;;;;;;0.20;0.20;;;;;;;16.23;64.01;102103.53;4986913;28;20355;-71
2021/06/01 07:11:10;;;;;;;0.20;0.20;;;;;;;16.42;62.70;102115.19;4987827;28;20030;-71
2021/06/01 07:13:44;;;;;;;0.20;0.20;;;;;;;16.48;63.13;102115.50;4997284;28;20046;-71
2021/06/01 07:16:11;;;;;;;0.20;0.20;;;;;;;16.50;62.61;102107.47;4985965;28;20037;-71
2021/06/01 07:18:39;;;;;;;0.20;0.20;;;;;;;16.62;59.21;102096.78;4984717;28;20030;-71
2021/06/01 07:21:11;;;;;;;0.20;0.20;;;;;;;16.71;59.32;102097.88;4983765;28;20503;-70
2021/06/01 07:23:37;;;;;;;0.20;0.20;;;;;;;16.91;62.24;102106.72;4967970;28;20053;-71
2021/06/01 07:26:04;;;;;;;0.20;0.20;;;;;;;17.09;61.42;102109.59;4966955;28;20030;-71
2021/06/01 07:28:29;;;;;;;0.20;0.20;;;;;;;17.17;57.97;102107.94;4985285;28;20199;-71
2021/06/01 07:30:55;;;;;;;0.20;0.20;;;;;;;17.09;56.43;102080.63;4967615;28;20732;-72
2021/06/01 07:33:20;;;;;;;0.20;0.20;;;;;;;17.31;57.21;102112.03;4997821;28;20042;-72
2021/06/01 07:35:46;;;;;;;0.10;0.10;;;;;;;17.44;57.63;102104.75;4971851;28;20508;-71
2021/06/01 07:38:13;;;;;;;0.10;0.10;;;;;;;17.53;55.07;102089.94;4967702;28;20042;-72
2021/06/01 07:40:41;;;;;;;0.10;0.10;;;;;;;17.69;55.26;102110.53;4983123;28;20045;-73
2021/06/01 07:43:07;;;;;;;0.20;0.20;;;;;;;17.79;54.00;102106.13;5012863;28;20045;-72
2021/06/01 07:45:33;;;;;;;0.20;0.20;;;;;;;17.67;51.46;102070.28;4984039;28;20026;-71
2021/06/01 07:47:59;;;;;;;0.20;0.20;;;;;;;17.83;50.68;102089.09;4984142;28;20046;-71
2021/06/01 07:50:25;;;;;;;0.10;0.10;;;;;;;17.96;49.91;102096.75;4984317;28;20129;-71
2021/06/01 07:52:54;;;;;;;0.10;0.10;;;;;;;18.14;51.13;102103.00;4978030;28;21360;-71
2021/06/01 07:55:20;;;;;;;0.20;0.20;;;;;;;18.29;48.92;102106.88;4979902;28;20197;-71
2021/06/01 07:57:45;;;;;;;0.13;0.13;;;;;;;18.35;49.02;102103.69;4997418;28;20041;-72
2021/06/01 08:00:12;;;;;;;0.10;0.10;;;;;;;18.43;49.84;102090.63;4988204;28;20421;-72
2021/06/01 08:02:41;;;;;;;0.20;0.20;;;;;;;18.55;49.30;102093.97;4977468;28;20057;-71
2021/06/01 08:05:08;;;;;;;0.15;0.15;;;;;;;18.70;46.57;102097.88;4980650;28;20035;-72
2021/06/01 08:07:34;;;;;;;0.28;0.10;;;;;;;18.70;46.33;102078.56;4996017;28;20046;-73
2021/06/01 08:10:01;;;;;;;0.20;0.20;;;;;;;18.93;46.59;102092.25;4976628;28;20360;-72
2021/06/01 08:12:27;;;;;;;0.20;0.20;;;;;;;18.89;44.80;102069.78;4983871;28;20170;-73
2021/06/01 08:14:54;;;;;;;0.20;0.20;;;;;;;18.86;45.87;102055.06;4966754;28;20444;-70
2021/06/01 08:17:19;;;;;;;0.10;0.10;;;;;;;19.25;46.57;102091.88;4983852;28;20129;-70
2021/06/01 08:19:46;;;;;;;0.20;0.20;;;;;;;19.22;42.89;102081.63;4984194;28;20042;-71
2021/06/01 08:22:19;;;;;;;0.10;0.10;;;;;;;19.15;41.76;102056.75;4983470;28;20034;-73
2021/06/01 08:24:45;;;;;;;0.10;0.10;;;;;;;19.41;42.40;102084.16;4998264;28;20072;-73
2021/06/01 08:27:11;;;;;;;0.40;0.20;;;;;;;19.27;39.60;102043.22;4983800;28;20064;-73
2021/06/01 08:29:36;;;;;;;0.20;0.20;;;;;;;19.37;41.01;102044.97;4966098;28;20039;-73
2021/06/01 08:32:04;;;;;;;0.10;0.10;;;;;;;19.70;41.03;102083.19;4980142;28;20039;-73
2021/06/01 08:34:29;;;;;;;0.38;0.20;;;;;;;19.80;41.97;102071.59;4984177;28;20037;-72
2021/06/01 08:36:55;;;;;;;0.10;0.10;;;;;;;19.96;43.07;102070.94;4979770;28;20493;-73
2021/06/01 08:39:26;;;;;;;0.10;0.10;;;;;;;20.02;37.67;102069.50;4981097;28;20047;-73
2021/06/01 08:41:53;;;;;;;0.10;0.10;;;;;;;20.08;41.84;102050.38;4980787;28;20506;-72
2021/06/01 08:44:19;;;;;;;0.17;0.17;;;;;;;20.25;39.94;102061.91;4981460;28;20049;-70
2021/06/01 08:46:49;;;;;;;0.13;0.13;;;;;;;20.37;38.61;102061.53;4993176;28;20050;-69
2021/06/01 08:49:16;;;;;;;0.10;0.10;;;;;;;20.17;35.99;102015.09;4982871;28;20062;-73
2021/06/01 08:51:42;;;;;;;0.00;0.00;;;;;;;20.59;37.18;102070.00;4979259;28;20030;-73
2021/06/01 08:54:09;;;;;;;0.20;0.10;;;;;;;20.61;36.85;102052.13;4976697;28;20047;-70
2021/06/01 08:56:35;;;;;;;0.40;0.13;;;;;;;20.74;37.30;102063.97;4995191;28;20080;-70
2021/06/01 08:59:00;;;;;;;0.35;0.10;;;;;;;20.85;37.84;102054.94;4983719;28;20053;-70
2021/06/01 09:01:26;;;;;;;0.20;0.10;;;;;;;20.89;38.03;102047.53;4981257;28;20035;-70
2021/06/01 09:03:59;;;;;;;0.10;0.10;;;;;;;20.98;37.22;102052.69;4990985;28;20035;-73
2021/06/01 09:06:36;;;;;;;0.10;0.10;;;;;;;21.01;35.78;102049.75;4949358;28;20050;-72
2021/06/01 09:09:28;;;;;;;0.10;0.10;;;;;;;21.01;35.14;102043.63;4980538;28;20069;-73
2021/06/01 09:22:47;;;;;;;0.20;0.13;;;;;;;21.45;36.83;102038.19;4979526;28;20042;-71
2021/06/01 09:25:33;;;;;;;0.10;0.10;;;;;;;21.60;37.06;102025.97;4983225;28;20805;-71
2021/06/01 09:28:03;;;;;;;0.40;0.10;;;;;;;21.71;35.97;102023.00;4979311;28;20042;-70
2021/06/01 09:30:47;;;;;;;0.10;0.10;;;;;;;21.87;36.33;102040.75;4977827;28;20022;-70
2021/06/01 09:33:15;;;;;;;0.10;0.10;;;;;;;21.95;34.74;102035.47;4979573;28;20037;-71
2021/06/01 09:35:52;;;;;;;0.10;0.10;;;;;;;22.08;34.63;102035.00;4954785;28;20030;-70
2021/06/01 09:38:28;;;;;;;0.10;0.10;;;;;;;22.02;34.31;102016.06;4994395;28;20504;-70
2021/06/01 09:41:05;;;;;;;0.13;0.10;;;;;;;22.09;36.58;102013.63;4964531;28;20030;-71
2021/06/01 09:43:31;;;;;;;0.10;0.10;;;;;;;22.20;36.28;102017.75;4980652;28;20129;-71
2021/06/01 09:45:57;;;;;;;0.10;0.10;;;;;;;21.83;36.62;101946.63;4946482;28;20026;-70
2021/06/01 09:48:25;;;;;;;0.10;0.10;;;;;;;22.07;33.32;101967.84;4994862;28;20061;-71
2021/06/01 09:50:55;;;;;;;0.10;0.10;;;;;;;22.29;38.16;101990.25;4964018;28;20412;-71
2021/06/01 09:55:49;;;;;;;0.13;0.00;;;;;;;22.68;34.77;102010.72;4961545;28;20583;-70
2021/06/01 09:58:33;;;;;;;0.10;0.10;;;;;;;22.73;36.98;101995.94;4976661;28;20137;-70
2021/06/01 10:01:04;;;;;;;0.00;0.00;;;;;;;22.63;33.46;101981.22;4963381;28;20558;-70
2021/06/01 10:03:42;;;;;;;0.13;0.10;;;;;;;22.82;35.76;102002.91;4995801;28;20736;-72
2021/06/01 10:06:11;;;;;;;0.00;0.00;;;;;;;22.90;35.04;102024.13;4977030;28;20043;-70
2021/06/01 10:08:49;;;;;;;0.30;0.17;;;;;;;22.81;36.09;101985.31;4980951;28;20035;-70
2021/06/01 10:11:16;;;;;;;0.10;0.10;;;;;;;22.97;34.85;102004.84;4980785;28;20046;-70
2021/06/01 10:13:43;;;;;;;0.35;0.10;;;;;;;22.91;34.66;102001.88;4967752;28;20038;-70
2021/06/01 10:16:16;;;;;;;0.00;0.00;;;;;;;22.73;36.19;101940.16;4996133;28;20039;-70
2021/06/01 10:18:46;;;;;;;0.20;0.20;;;;;;;23.20;34.14;102016.38;4964996;28;20034;-71
2021/06/01 10:21:15;;;;;;;0.10;0.10;;;;;;;23.04;33.48;101966.81;4966440;28;20038;-71
2021/06/01 10:23:42;;;;;;;0.10;0.10;;;;;;;23.05;33.48;101952.50;4960893;28;20065;-71
2021/06/01 10:26:13;;;;;;;0.03;0.03;;;;;;;23.38;33.73;101984.22;4969021;28;20089;-70
2021/06/01 10:28:43;;;;;;;0.47;0.15;;;;;;;23.59;32.00;101992.44;4979154;28;20050;-71
2021/06/01 10:31:11;;;;;;;0.10;0.10;;;;;;;23.18;33.88;101923.56;4981230;28;20469;-71
2021/06/01 10:33:59;;;;;;;0.10;0.10;;;;;;;23.64;33.85;101975.94;4962834;28;20042;-70
2021/06/01 10:50:32;;;;;;;0.10;0.10;;;;;;;24.12;33.93;101980.03;4975262;28;20042;-70
2021/06/01 10:53:20;;;;;;;0.10;0.10;;;;;;;24.29;33.16;101972.75;4962790;28;20658;-70
2021/06/01 10:55:56;;;;;;;0.10;0.10;;;;;;;24.45;32.32;101977.09;4972088;28;20487;-70
2021/06/01 10:58:30;;;;;;;0.10;0.10;;;;;;;24.45;32.00;101975.25;4979675;28;20587;-70
2021/06/01 11:04:29;;;;;;;0.10;0.10;;;;;;;24.52;34.00;101962.84;4970606;28;20397;-70
2021/06/01 11:09:44;;;;;;;0.10;0.10;;;;;;;24.78;34.10;101969.56;4969420;28;20085;-71
2021/06/01 11:12:16;;;;;;;0.10;0.10;;;;;;;24.89;33.71;101966.41;4985173;28;21959;-71
2021/06/01 11:14:42;;;;;;;0.00;0.00;;;;;;;24.82;32.61;101941.53;4994259;28;20054;-71
2021/06/01 11:17:08;;;;;;;0.20;0.20;;;;;;;24.90;33.30;101968.88;4963165;28;20042;-71
2021/06/01 11:20:04;;;;;;;0.30;0.10;;;;;;;24.91;31.82;101959.03;5007684;28;20042;-71
2021/06/01 11:33:25;;;;;;;0.10;0.10;;;;;;;25.37;30.66;101922.28;4983534;28;20062;-70
2021/06/01 11:36:04;;;;;;;0.00;0.00;;;;;;;25.52;34.05;101943.56;4967743;28;20789;-69
2021/06/01 11:38:43;;;;;;;0.10;0.10;;;;;;;25.60;33.76;101946.09;4984060;28;20040;-70
2021/06/01 11:42:46;;;;;;;0.10;0.10;;;;;;;25.85;31.36;101936.72;4963924;28;20121;-70
2021/06/01 11:44:16;;;;;;;0.10;0.10;;;;;;;25.65;31.64;101921.50;4982545;28;20046;-69
2021/06/01 11:47:08;;;;;;;0.10;0.10;;;;;;;25.91;31.31;101940.44;4968602;28;20240;-70
2021/06/01 11:52:25;;;;;;;;;;;;;;;26.22;29.79;101940.06;4967861;28;20443;-70
2021/06/01 11:54:51;;;;;;;0.00;0.00;;;;;;;26.33;28.49;101927.97;4983706;28;20032;-70
2021/06/01 12:13:44;;;;;;;0.10;0.10;;;;;;;27.21;28.77;101905.78;4976100;28;20327;-70
2021/06/01 12:19:04;;;;;;;0.10;0.10;;;;;;;27.47;31.24;101921.03;4965779;28;20076;-70
2021/06/01 12:21:37;;;;;;;0.08;0.08;;;;;;;27.54;28.91;101897.78;4983150;28;20033;-69
2021/06/01 12:24:11;;;;;;;0.05;0.05;;;;;;;27.63;26.05;101909.13;4964617;28;20031;-70
2021/06/01 12:32:06;;;;;;;0.10;0.10;;;;;;;27.97;27.16;101906.22;4981958;28;20866;-70
2021/06/01 13:21:47;;;;;;;0.08;0.08;;;;;;;29.55;28.23;101839.50;4967115;28;20062;-70
2021/06/01 13:38:20;;;;;;;0.15;0.05;;;;;;;29.52;24.80;101820.34;4993057;28;20478;-70
2021/06/01 13:46:39;;;;;;;0.10;0.10;;;;;;;29.16;26.72;101825.34;4959008;28;20058;-70
2021/06/01 13:49:14;;;;;;;0.00;0.00;;;;;;;29.57;27.26;101818.63;4981191;28;20035;-69
2021/06/01 13:56:56;;;;;;;0.00;0.00;;;;;;;29.94;25.29;101814.09;4978803;28;20038;-69
2021/06/01 13:59:45;;;;;;;0.00;0.00;;;;;;;30.03;24.74;101802.03;4967447;28;20038;-71
2021/06/01 16:13:27;;;;;;;0.10;0.10;;;;;;;31.97;24.17;101713.47;4981602;28;20057;-70
2021/06/01 17:04:45;;;;;;;0.52;0.10;;;;;;;30.37;29.36;101711.91;4983524;28;20046;-70
2021/06/01 17:08:01;;;;;;;0.30;0.10;;;;;;;30.28;29.19;101712.47;4966122;28;20034;-71